FICHTELBE Weather Reports


Display with metric or nautical units.
time (UTC)temp
F
wind
direction
speed
MPH
gust
MPH
rain 1hr
in
rain 24hr
in
rain mn
in
humidity
%
barometer
mb
20210617041606 59 160 16.0 0.0 0.00 0.00 0.00 62
20210617031707 59 160 16.0 0.0 0.00 0.00 0.00 58
20210617021708 59 160 16.0 24.0 0.00 0.00 0.00 62
20210617011708 59 150 15.0 0.0 0.00 0.00 0.00 67
20210617001710 59 140 16.0 0.0 0.00 0.00 0.00 72
20210616231708 59 130 17.0 0.0 0.00 0.00 0.00 77
20210616221708 61 130 18.0 0.0 0.00 0.00 0.00 72
20210616211708 61 120 18.0 0.0 0.00 0.00 0.00 72
20210616201722 61 120 18.0 0.0 0.00 0.00 0.00 72
20210616201707 61 120 18.0 0.0 0.00 0.00 0.00 72
20210616191709 63 120 15.0 0.0 0.00 0.00 0.00 72
20210616181709 64 120 18.0 0.0 0.00 0.00 0.00 67
20210616171708 66 120 17.0 0.0 0.00 0.00 0.00 68
20210616161708 66 120 15.0 22.0 0.00 0.00 0.00 63
20210616151709 68 140 12.0 20.0 0.00 0.00 0.00 64
20210616141709 68 140 15.0 23.0 0.00 0.00 0.00 68
20210616131709 68 140 10.0 21.0 0.00 0.00 0.00 68
20210616121714 70 140 10.0 20.0 0.00 0.00 0.00 64
20210616111715 66 140 10.0 17.0 0.00 0.00 0.00 68
20210616101715 66 130 13.0 20.0 0.00 0.00 0.00 68
20210616091715 66 130 13.0 0.0 0.00 0.00 0.00 59
20210616081709 64 120 12.0 20.0 0.00 0.00 0.00 67
20210616071710 63 120 10.0 0.0 0.00 0.00 0.00 77
20210616061710 61 120 9.0 0.0 0.00 0.00 0.00 77
20210616051723 57 130 10.0 0.0 0.00 0.00 0.00 87
20210616051710 57 130 10.0 0.0 0.00 0.00 0.00 87